sensor_id;sensor_type;location;lat;lon;timestamp;pressure;altitude;pressure_sealevel;temperature;humidity
10518;BME280;5307;42.548;22.968;2023-02-10T00:01:46;95492.50;;;-6.72;83.45
10518;BME280;5307;42.548;22.968;2023-02-10T00:04:13;95495.03;;;-6.67;82.84
10518;BME280;5307;42.548;22.968;2023-02-10T00:06:40;95503.19;;;-6.63;83.46
10518;BME280;5307;42.548;22.968;2023-02-10T00:09:10;95504.00;;;-6.90;83.50
10518;BME280;5307;42.548;22.968;2023-02-10T00:11:38;95500.53;;;-6.63;83.49
10518;BME280;5307;42.548;22.968;2023-02-10T00:14:24;95493.50;;;-6.95;83.68
10518;BME280;5307;42.548;22.968;2023-02-10T00:16:53;95497.91;;;-6.77;83.55
10518;BME280;5307;42.548;22.968;2023-02-10T00:19:21;95484.06;;;-6.88;82.60
10518;BME280;5307;42.548;22.968;2023-02-10T00:21:48;95488.00;;;-6.99;82.20
10518;BME280;5307;42.548;22.968;2023-02-10T00:24:15;95488.28;;;-6.86;83.05
10518;BME280;5307;42.548;22.968;2023-02-10T00:26:41;95492.31;;;-6.89;83.32
10518;BME280;5307;42.548;22.968;2023-02-10T00:29:08;95484.53;;;-6.99;83.42
10518;BME280;5307;42.548;22.968;2023-02-10T00:31:35;95483.84;;;-7.05;83.94
10518;BME280;5307;42.548;22.968;2023-02-10T00:34:03;95479.53;;;-7.14;84.54
10518;BME280;5307;42.548;22.968;2023-02-10T00:36:30;95474.41;;;-6.97;85.03
10518;BME280;5307;42.548;22.968;2023-02-10T00:38:57;95482.75;;;-6.90;84.48
10518;BME280;5307;42.548;22.968;2023-02-10T00:41:24;95478.34;;;-7.08;84.03
10518;BME280;5307;42.548;22.968;2023-02-10T00:43:51;95474.72;;;-7.12;85.15
10518;BME280;5307;42.548;22.968;2023-02-10T00:46:19;95477.16;;;-6.75;84.25
10518;BME280;5307;42.548;22.968;2023-02-10T00:48:47;95465.56;;;-7.06;83.70
10518;BME280;5307;42.548;22.968;2023-02-10T00:51:16;95473.81;;;-7.08;84.12
10518;BME280;5307;42.548;22.968;2023-02-10T00:53:43;95474.41;;;-7.25;83.90
10518;BME280;5307;42.548;22.968;2023-02-10T00:56:11;95481.19;;;-7.19;83.66
10518;BME280;5307;42.548;22.968;2023-02-10T00:58:38;95485.81;;;-7.10;84.21
10518;BME280;5307;42.548;22.968;2023-02-10T01:01:05;95479.31;;;-7.18;84.29
10518;BME280;5307;42.548;22.968;2023-02-10T01:03:32;95480.69;;;-7.21;84.90
10518;BME280;5307;42.548;22.968;2023-02-10T01:05:59;95479.13;;;-7.22;85.49
10518;BME280;5307;42.548;22.968;2023-02-10T01:08:28;95487.31;;;-7.32;84.33
10518;BME280;5307;42.548;22.968;2023-02-10T01:11:02;95479.72;;;-7.11;84.43
10518;BME280;5307;42.548;22.968;2023-02-10T01:13:29;95481.72;;;-7.16;84.29
10518;BME280;5307;42.548;22.968;2023-02-10T01:15:59;95478.44;;;-7.27;84.31
10518;BME280;5307;42.548;22.968;2023-02-10T01:18:26;95477.75;;;-7.19;84.20
10518;BME280;5307;42.548;22.968;2023-02-10T01:20:53;95467.22;;;-7.38;84.58
10518;BME280;5307;42.548;22.968;2023-02-10T01:23:19;95461.53;;;-7.04;84.28
10518;BME280;5307;42.548;22.968;2023-02-10T01:25:48;95469.28;;;-7.35;84.18
10518;BME280;5307;42.548;22.968;2023-02-10T01:28:14;95457.72;;;-7.25;84.39
10518;BME280;5307;42.548;22.968;2023-02-10T01:30:41;95468.97;;;-7.47;85.09
10518;BME280;5307;42.548;22.968;2023-02-10T01:33:08;95457.50;;;-7.29;84.35
10518;BME280;5307;42.548;22.968;2023-02-10T01:35:37;95462.03;;;-7.29;84.88
10518;BME280;5307;42.548;22.968;2023-02-10T01:38:04;95460.94;;;-7.42;84.14
10518;BME280;5307;42.548;22.968;2023-02-10T01:40:31;95464.97;;;-7.58;84.77
10518;BME280;5307;42.548;22.968;2023-02-10T01:42:59;95457.88;;;-7.35;85.18
10518;BME280;5307;42.548;22.968;2023-02-10T01:45:28;95449.44;;;-7.24;84.61
10518;BME280;5307;42.548;22.968;2023-02-10T01:47:57;95454.56;;;-7.41;84.23
10518;BME280;5307;42.548;22.968;2023-02-10T01:50:27;95448.28;;;-7.45;84.70
10518;BME280;5307;42.548;22.968;2023-02-10T01:52:56;95441.19;;;-7.36;83.61
10518;BME280;5307;42.548;22.968;2023-02-10T01:55:26;95449.81;;;-7.58;83.77
10518;BME280;5307;42.548;22.968;2023-02-10T01:58:05;95445.09;;;-7.61;84.46
10518;BME280;5307;42.548;22.968;2023-02-10T02:00:33;95451.97;;;-7.46;84.63
10518;BME280;5307;42.548;22.968;2023-02-10T02:03:01;95449.22;;;-7.55;84.57
10518;BME280;5307;42.548;22.968;2023-02-10T02:05:30;95452.88;;;-7.51;85.19
10518;BME280;5307;42.548;22.968;2023-02-10T02:08:00;95440.19;;;-7.67;84.89
10518;BME280;5307;42.548;22.968;2023-02-10T02:10:50;95447.72;;;-7.74;85.51
10518;BME280;5307;42.548;22.968;2023-02-10T02:13:28;95438.91;;;-7.56;86.20
10518;BME280;5307;42.548;22.968;2023-02-10T02:16:07;95445.69;;;-7.50;84.75
10518;BME280;5307;42.548;22.968;2023-02-10T02:18:41;95436.75;;;-7.68;84.36
10518;BME280;5307;42.548;22.968;2023-02-10T02:21:38;95431.56;;;-7.59;84.37
10518;BME280;5307;42.548;22.968;2023-02-10T02:24:24;95433.91;;;-7.71;84.55
10518;BME280;5307;42.548;22.968;2023-02-10T02:27:11;95426.44;;;-7.69;85.47
10518;BME280;5307;42.548;22.968;2023-02-10T02:30:15;95435.47;;;-7.70;85.10
10518;BME280;5307;42.548;22.968;2023-02-10T02:32:51;95437.03;;;-7.69;85.70
10518;BME280;5307;42.548;22.968;2023-02-10T02:35:24;95440.53;;;-7.88;85.60
10518;BME280;5307;42.548;22.968;2023-02-10T02:37:53;95432.88;;;-7.75;85.52
10518;BME280;5307;42.548;22.968;2023-02-10T02:40:21;95444.50;;;-7.71;85.30
10518;BME280;5307;42.548;22.968;2023-02-10T02:42:48;95435.63;;;-7.81;84.44
10518;BME280;5307;42.548;22.968;2023-02-10T02:45:19;95429.38;;;-8.03;85.87
10518;BME280;5307;42.548;22.968;2023-02-10T02:48:09;95427.28;;;-7.88;86.17
10518;BME280;5307;42.548;22.968;2023-02-10T02:50:43;95433.16;;;-7.91;85.96
10518;BME280;5307;42.548;22.968;2023-02-10T02:53:22;95431.38;;;-7.95;86.63
10518;BME280;5307;42.548;22.968;2023-02-10T02:55:58;95418.94;;;-7.81;85.57
10518;BME280;5307;42.548;22.968;2023-02-10T02:58:33;95417.19;;;-7.72;85.54
10518;BME280;5307;42.548;22.968;2023-02-10T03:01:05;95430.50;;;-7.91;85.64
10518;BME280;5307;42.548;22.968;2023-02-10T03:03:36;95429.72;;;-7.91;85.59
10518;BME280;5307;42.548;22.968;2023-02-10T03:06:03;95420.31;;;-7.84;85.62
10518;BME280;5307;42.548;22.968;2023-02-10T03:08:32;95436.06;;;-7.73;85.20
10518;BME280;5307;42.548;22.968;2023-02-10T03:11:00;95425.78;;;-7.94;84.87
10518;BME280;5307;42.548;22.968;2023-02-10T03:13:26;95441.75;;;-8.13;85.50
10518;BME280;5307;42.548;22.968;2023-02-10T03:15:53;95436.94;;;-8.11;85.62
10518;BME280;5307;42.548;22.968;2023-02-10T03:18:20;95434.63;;;-7.98;85.82
10518;BME280;5307;42.548;22.968;2023-02-10T03:20:48;95438.13;;;-8.03;85.45
10518;BME280;5307;42.548;22.968;2023-02-10T03:23:15;95432.25;;;-8.00;85.26
10518;BME280;5307;42.548;22.968;2023-02-10T03:25:44;95427.72;;;-8.13;85.12
10518;BME280;5307;42.548;22.968;2023-02-10T03:28:11;95428.78;;;-8.14;85.19
10518;BME280;5307;42.548;22.968;2023-02-10T03:30:38;95430.94;;;-8.16;85.07
10518;BME280;5307;42.548;22.968;2023-02-10T03:33:07;95435.81;;;-8.23;85.31
10518;BME280;5307;42.548;22.968;2023-02-10T03:35:35;95433.06;;;-8.18;85.52
10518;BME280;5307;42.548;22.968;2023-02-10T03:38:03;95422.75;;;-8.01;84.98
10518;BME280;5307;42.548;22.968;2023-02-10T03:40:30;95412.94;;;-8.19;84.36
10518;BME280;5307;42.548;22.968;2023-02-10T03:42:57;95413.34;;;-8.26;85.47
10518;BME280;5307;42.548;22.968;2023-02-10T03:45:24;95413.88;;;-8.10;84.90
10518;BME280;5307;42.548;22.968;2023-02-10T03:47:50;95411.38;;;-8.20;85.42
10518;BME280;5307;42.548;22.968;2023-02-10T03:50:17;95412.63;;;-8.31;85.97
10518;BME280;5307;42.548;22.968;2023-02-10T03:52:44;95400.28;;;-8.22;85.41
10518;BME280;5307;42.548;22.968;2023-02-10T03:55:12;95397.84;;;-8.19;85.60
10518;BME280;5307;42.548;22.968;2023-02-10T03:57:43;95390.75;;;-8.37;85.56
10518;BME280;5307;42.548;22.968;2023-02-10T04:00:11;95399.06;;;-8.11;85.42
10518;BME280;5307;42.548;22.968;2023-02-10T04:02:39;95402.34;;;-8.19;85.27
10518;BME280;5307;42.548;22.968;2023-02-10T04:05:06;95399.38;;;-8.31;85.18
10518;BME280;5307;42.548;22.968;2023-02-10T04:07:33;95396.50;;;-8.16;85.14
10518;BME280;5307;42.548;22.968;2023-02-10T04:10:00;95386.38;;;-8.14;84.56
10518;BME280;5307;42.548;22.968;2023-02-10T04:12:28;95393.81;;;-8.30;85.00
10518;BME280;5307;42.548;22.968;2023-02-10T04:14:55;95381.16;;;-8.19;85.17
10518;BME280;5307;42.548;22.968;2023-02-10T04:17:22;95395.09;;;-8.27;85.18
10518;BME280;5307;42.548;22.968;2023-02-10T04:19:48;95394.69;;;-8.34;85.54
10518;BME280;5307;42.548;22.968;2023-02-10T04:22:15;95395.38;;;-8.43;85.21
10518;BME280;5307;42.548;22.968;2023-02-10T04:24:42;95389.97;;;-8.38;85.01
10518;BME280;5307;42.548;22.968;2023-02-10T04:27:09;95397.00;;;-8.33;85.25
10518;BME280;5307;42.548;22.968;2023-02-10T04:29:37;95396.44;;;-8.44;86.18
10518;BME280;5307;42.548;22.968;2023-02-10T04:32:06;95403.38;;;-8.48;85.58
10518;BME280;5307;42.548;22.968;2023-02-10T04:34:33;95399.16;;;-8.49;85.49
10518;BME280;5307;42.548;22.968;2023-02-10T04:37:00;95392.50;;;-8.32;85.80
10518;BME280;5307;42.548;22.968;2023-02-10T04:39:27;95398.50;;;-8.59;85.47
10518;BME280;5307;42.548;22.968;2023-02-10T04:41:53;95396.31;;;-8.71;85.49
10518;BME280;5307;42.548;22.968;2023-02-10T04:44:20;95403.41;;;-8.66;85.66
10518;BME280;5307;42.548;22.968;2023-02-10T04:46:48;95398.88;;;-8.66;85.70
10518;BME280;5307;42.548;22.968;2023-02-10T04:49:16;95414.75;;;-8.47;85.40
10518;BME280;5307;42.548;22.968;2023-02-10T04:51:43;95415.34;;;-8.69;85.08
10518;BME280;5307;42.548;22.968;2023-02-10T04:54:10;95407.25;;;-8.59;85.22
10518;BME280;5307;42.548;22.968;2023-02-10T04:56:37;95412.13;;;-8.33;84.89
10518;BME280;5307;42.548;22.968;2023-02-10T05:02:27;95423.84;;;-8.53;84.29
10518;BME280;5307;42.548;22.968;2023-02-10T05:04:54;95423.41;;;-8.42;83.65
10518;BME280;5307;42.548;22.968;2023-02-10T05:07:20;95418.06;;;-8.55;83.43
10518;BME280;5307;42.548;22.968;2023-02-10T05:09:47;95415.19;;;-8.59;84.23
10518;BME280;5307;42.548;22.968;2023-02-10T05:12:14;95426.22;;;-8.71;83.88
10518;BME280;5307;42.548;22.968;2023-02-10T05:14:41;95434.78;;;-8.60;84.63
10518;BME280;5307;42.548;22.968;2023-02-10T05:17:07;95427.84;;;-8.37;84.36
10518;BME280;5307;42.548;22.968;2023-02-10T05:19:36;95442.25;;;-8.62;84.18
10518;BME280;5307;42.548;22.968;2023-02-10T05:22:02;95449.19;;;-8.66;84.42
10518;BME280;5307;42.548;22.968;2023-02-10T05:24:29;95448.50;;;-8.72;84.34
10518;BME280;5307;42.548;22.968;2023-02-10T05:26:56;95444.25;;;-8.73;83.90
10518;BME280;5307;42.548;22.968;2023-02-10T05:29:24;95450.69;;;-8.60;85.34
10518;BME280;5307;42.548;22.968;2023-02-10T05:31:51;95447.03;;;-8.45;84.24
10518;BME280;5307;42.548;22.968;2023-02-10T05:34:17;95458.19;;;-8.48;84.05
10518;BME280;5307;42.548;22.968;2023-02-10T05:36:46;95451.84;;;-8.66;84.64
10518;BME280;5307;42.548;22.968;2023-02-10T05:39:12;95453.13;;;-8.82;85.01
10518;BME280;5307;42.548;22.968;2023-02-10T05:41:52;95455.28;;;-8.65;84.79
10518;BME280;5307;42.548;22.968;2023-02-10T05:44:19;95456.84;;;-8.83;84.68
10518;BME280;5307;42.548;22.968;2023-02-10T05:46:46;95455.69;;;-8.77;85.16
10518;BME280;5307;42.548;22.968;2023-02-10T05:49:13;95471.28;;;-8.76;84.77
10518;BME280;5307;42.548;22.968;2023-02-10T05:51:40;95468.97;;;-8.58;85.07
10518;BME280;5307;42.548;22.968;2023-02-10T05:54:10;95473.31;;;-8.49;84.48
10518;BME280;5307;42.548;22.968;2023-02-10T05:56:37;95485.22;;;-8.32;84.26
10518;BME280;5307;42.548;22.968;2023-02-10T05:59:05;95488.19;;;-8.53;83.83
10518;BME280;5307;42.548;22.968;2023-02-10T06:01:32;95480.16;;;-8.48;84.36
10518;BME280;5307;42.548;22.968;2023-02-10T06:03:59;95486.25;;;-8.47;84.06
10518;BME280;5307;42.548;22.968;2023-02-10T06:06:26;95485.22;;;-8.32;84.24
10518;BME280;5307;42.548;22.968;2023-02-10T06:08:54;95492.31;;;-8.09;83.60
10518;BME280;5307;42.548;22.968;2023-02-10T06:11:22;95488.81;;;-7.91;84.00
10518;BME280;5307;42.548;22.968;2023-02-10T06:13:48;95499.72;;;-7.92;83.39
10518;BME280;5307;42.548;22.968;2023-02-10T06:16:15;95495.03;;;-8.14;82.60
10518;BME280;5307;42.548;22.968;2023-02-10T06:18:42;95494.53;;;-8.16;83.70
10518;BME280;5307;42.548;22.968;2023-02-10T06:21:14;95497.97;;;-8.16;83.75
10518;BME280;5307;42.548;22.968;2023-02-10T06:23:41;95498.03;;;-8.02;83.72
10518;BME280;5307;42.548;22.968;2023-02-10T06:26:08;95503.59;;;-8.03;83.36
10518;BME280;5307;42.548;22.968;2023-02-10T06:28:36;95501.19;;;-7.67;83.71
10518;BME280;5307;42.548;22.968;2023-02-10T06:31:03;95499.31;;;-7.67;84.14
10518;BME280;5307;42.548;22.968;2023-02-10T06:33:30;95507.38;;;-7.91;83.79
10518;BME280;5307;42.548;22.968;2023-02-10T06:35:58;95511.09;;;-7.92;83.14
10518;BME280;5307;42.548;22.968;2023-02-10T06:38:30;95502.25;;;-7.68;83.29
10518;BME280;5307;42.548;22.968;2023-02-10T06:40:57;95506.53;;;-7.86;82.97
10518;BME280;5307;42.548;22.968;2023-02-10T06:43:24;95499.56;;;-7.82;82.83
10518;BME280;5307;42.548;22.968;2023-02-10T06:45:53;95500.59;;;-7.64;82.38
10518;BME280;5307;42.548;22.968;2023-02-10T06:48:20;95507.72;;;-7.79;82.81
10518;BME280;5307;42.548;22.968;2023-02-10T06:50:47;95508.22;;;-7.44;82.04
10518;BME280;5307;42.548;22.968;2023-02-10T06:53:14;95506.63;;;-7.45;81.19
10518;BME280;5307;42.548;22.968;2023-02-10T06:55:41;95508.22;;;-7.44;81.37
10518;BME280;5307;42.548;22.968;2023-02-10T06:58:08;95523.09;;;-7.15;80.63
10518;BME280;5307;42.548;22.968;2023-02-10T07:00:35;95515.91;;;-7.15;80.88
10518;BME280;5307;42.548;22.968;2023-02-10T07:03:03;95519.25;;;-7.09;80.11
10518;BME280;5307;42.548;22.968;2023-02-10T07:05:30;95520.72;;;-7.17;80.64
10518;BME280;5307;42.548;22.968;2023-02-10T07:07:58;95508.25;;;-7.03;80.52
10518;BME280;5307;42.548;22.968;2023-02-10T07:10:25;95506.28;;;-6.97;79.80
10518;BME280;5307;42.548;22.968;2023-02-10T07:12:52;95509.09;;;-6.52;79.00
10518;BME280;5307;42.548;22.968;2023-02-10T07:15:19;95505.38;;;-6.15;78.03
10518;BME280;5307;42.548;22.968;2023-02-10T07:17:48;95510.44;;;-5.83;76.59
10518;BME280;5307;42.548;22.968;2023-02-10T07:20:17;95508.72;;;-5.79;76.32
10518;BME280;5307;42.548;22.968;2023-02-10T07:22:44;95507.56;;;-5.64;75.04
10518;BME280;5307;42.548;22.968;2023-02-10T07:25:11;95513.75;;;-5.24;74.29
10518;BME280;5307;42.548;22.968;2023-02-10T07:27:38;95514.81;;;-5.33;73.76
10518;BME280;5307;42.548;22.968;2023-02-10T07:30:05;95511.47;;;-4.77;72.40
10518;BME280;5307;42.548;22.968;2023-02-10T07:32:32;95512.72;;;-4.74;71.60
10518;BME280;5307;42.548;22.968;2023-02-10T07:34:59;95509.72;;;-4.82;70.29
10518;BME280;5307;42.548;22.968;2023-02-10T07:37:27;95506.09;;;-4.11;70.22
10518;BME280;5307;42.548;22.968;2023-02-10T07:39:54;95508.16;;;-4.00;68.47
10518;BME280;5307;42.548;22.968;2023-02-10T07:42:21;95503.47;;;-3.13;66.46
10518;BME280;5307;42.548;22.968;2023-02-10T07:44:48;95499.88;;;-3.25;65.34
10518;BME280;5307;42.548;22.968;2023-02-10T07:47:14;95500.44;;;-3.58;65.00
10518;BME280;5307;42.548;22.968;2023-02-10T07:49:41;95506.69;;;-4.40;66.29
10518;BME280;5307;42.548;22.968;2023-02-10T07:52:08;95497.28;;;-2.96;65.79
10518;BME280;5307;42.548;22.968;2023-02-10T07:54:37;95474.19;;;-3.01;63.79
10518;BME280;5307;42.548;22.968;2023-02-10T07:57:03;95503.31;;;-2.40;62.23
10518;BME280;5307;42.548;22.968;2023-02-10T07:59:30;95499.88;;;-3.25;61.66
10518;BME280;5307;42.548;22.968;2023-02-10T08:01:57;95500.00;;;-3.05;62.04
10518;BME280;5307;42.548;22.968;2023-02-10T08:04:24;95506.72;;;-2.31;60.13
10518;BME280;5307;42.548;22.968;2023-02-10T08:06:51;95500.31;;;-1.55;57.98
10518;BME280;5307;42.548;22.968;2023-02-10T08:09:17;95491.47;;;-1.68;57.50
10518;BME280;5307;42.548;22.968;2023-02-10T08:11:45;95502.09;;;-2.01;57.19
10518;BME280;5307;42.548;22.968;2023-02-10T08:14:13;95492.88;;;-1.70;57.55
10518;BME280;5307;42.548;22.968;2023-02-10T08:16:40;95492.84;;;-2.03;57.88
10518;BME280;5307;42.548;22.968;2023-02-10T08:19:07;95482.31;;;-1.67;55.93
10518;BME280;5307;42.548;22.968;2023-02-10T08:21:34;95480.75;;;-2.30;56.90
10518;BME280;5307;42.548;22.968;2023-02-10T08:24:01;95485.94;;;-1.05;55.66
10518;BME280;5307;42.548;22.968;2023-02-10T08:26:27;95481.75;;;-1.39;54.27
10518;BME280;5307;42.548;22.968;2023-02-10T08:28:56;95482.19;;;-0.80;53.32
10518;BME280;5307;42.548;22.968;2023-02-10T08:31:24;95485.38;;;-1.23;52.97
10518;BME280;5307;42.548;22.968;2023-02-10T08:33:51;95487.53;;;-2.12;55.45
10518;BME280;5307;42.548;22.968;2023-02-10T08:39:24;95473.81;;;-0.54;53.03
10518;BME280;5307;42.548;22.968;2023-02-10T08:41:50;95474.59;;;-0.53;53.32
10518;BME280;5307;42.548;22.968;2023-02-10T08:44:19;95473.06;;;-0.02;51.65
10518;BME280;5307;42.548;22.968;2023-02-10T08:46:46;95470.09;;;1.15;50.60
10518;BME280;5307;42.548;22.968;2023-02-10T08:49:14;95469.31;;;1.14;49.96
10518;BME280;5307;42.548;22.968;2023-02-10T08:51:40;95458.25;;;0.44;49.93
10518;BME280;5307;42.548;22.968;2023-02-10T08:54:08;95471.91;;;0.39;51.45
10518;BME280;5307;42.548;22.968;2023-02-10T08:56:35;95471.53;;;0.97;50.06
10518;BME280;5307;42.548;22.968;2023-02-10T08:59:03;95467.59;;;-0.18;51.26
10518;BME280;5307;42.548;22.968;2023-02-10T09:01:31;95458.38;;;0.08;51.20
10518;BME280;5307;42.548;22.968;2023-02-10T09:03:58;95452.19;;;-0.33;50.27
10518;BME280;5307;42.548;22.968;2023-02-10T09:06:27;95452.19;;;0.47;50.15
10518;BME280;5307;42.548;22.968;2023-02-10T09:08:55;95449.75;;;0.86;50.60
10518;BME280;5307;42.548;22.968;2023-02-10T09:11:23;95454.28;;;0.54;50.02
10518;BME280;5307;42.548;22.968;2023-02-10T09:13:51;95452.09;;;1.03;49.89
10518;BME280;5307;42.548;22.968;2023-02-10T09:16:18;95453.88;;;0.68;49.89
10518;BME280;5307;42.548;22.968;2023-02-10T09:18:46;95449.44;;;0.59;49.18
10518;BME280;5307;42.548;22.968;2023-02-10T09:21:13;95447.88;;;0.58;49.60
10518;BME280;5307;42.548;22.968;2023-02-10T09:23:40;95445.72;;;0.64;49.20
10518;BME280;5307;42.548;22.968;2023-02-10T09:26:07;95448.53;;;1.31;48.92
10518;BME280;5307;42.548;22.968;2023-02-10T09:28:34;95431.09;;;1.25;48.39
10518;BME280;5307;42.548;22.968;2023-02-10T09:31:03;95438.56;;;1.15;48.76
10518;BME280;5307;42.548;22.968;2023-02-10T09:33:30;95433.50;;;1.81;48.00
10518;BME280;5307;42.548;22.968;2023-02-10T09:35:58;95438.28;;;1.87;47.41
10518;BME280;5307;42.548;22.968;2023-02-10T09:38:25;95433.63;;;2.23;45.13
10518;BME280;5307;42.548;22.968;2023-02-10T09:41:02;95434.75;;;1.67;46.09
10518;BME280;5307;42.548;22.968;2023-02-10T09:43:53;95426.72;;;1.87;46.45
10518;BME280;5307;42.548;22.968;2023-02-10T09:46:31;95419.28;;;1.45;46.04
10518;BME280;5307;42.548;22.968;2023-02-10T09:49:13;95426.50;;;0.94;46.92
10518;BME280;5307;42.548;22.968;2023-02-10T09:51:53;95425.16;;;1.86;46.50
10518;BME280;5307;42.548;22.968;2023-02-10T09:54:23;95419.09;;;3.12;44.38
10518;BME280;5307;42.548;22.968;2023-02-10T09:56:49;95419.25;;;3.00;44.14
10518;BME280;5307;42.548;22.968;2023-02-10T09:59:19;95424.22;;;3.20;43.19
10518;BME280;5307;42.548;22.968;2023-02-10T10:01:51;95403.81;;;3.23;44.36
10518;BME280;5307;42.548;22.968;2023-02-10T10:04:20;95398.91;;;3.81;42.72
10518;BME280;5307;42.548;22.968;2023-02-10T10:06:51;95396.56;;;2.58;44.99
10518;BME280;5307;42.548;22.968;2023-02-10T10:09:27;95400.22;;;4.25;42.87
10518;BME280;5307;42.548;22.968;2023-02-10T10:11:58;95388.84;;;3.52;43.29
10518;BME280;5307;42.548;22.968;2023-02-10T10:14:27;95386.50;;;3.50;44.41
10518;BME280;5307;42.548;22.968;2023-02-10T10:17:12;95383.38;;;3.75;42.38
10518;BME280;5307;42.548;22.968;2023-02-10T10:19:53;95379.97;;;3.25;43.93
10518;BME280;5307;42.548;22.968;2023-02-10T10:22:31;95374.63;;;3.85;44.23
10518;BME280;5307;42.548;22.968;2023-02-10T10:25:19;95373.59;;;2.45;47.13
10518;BME280;5307;42.548;22.968;2023-02-10T10:27:55;95359.41;;;3.43;44.09
10518;BME280;5307;42.548;22.968;2023-02-10T10:30:32;95357.16;;;3.49;44.99
10518;BME280;5307;42.548;22.968;2023-02-10T10:33:06;95362.38;;;3.65;43.68
10518;BME280;5307;42.548;22.968;2023-02-10T10:35:42;95353.59;;;4.35;44.67
10518;BME280;5307;42.548;22.968;2023-02-10T10:38:14;95369.75;;;3.94;44.74
10518;BME280;5307;42.548;22.968;2023-02-10T10:40:43;95363.47;;;4.20;42.46
10518;BME280;5307;42.548;22.968;2023-02-10T10:43:14;95356.19;;;4.24;43.46
10518;BME280;5307;42.548;22.968;2023-02-10T10:45:47;95358.22;;;4.01;44.11
10518;BME280;5307;42.548;22.968;2023-02-10T10:48:19;95349.13;;;4.16;43.38
10518;BME280;5307;42.548;22.968;2023-02-10T10:50:51;95336.84;;;4.59;43.12
10518;BME280;5307;42.548;22.968;2023-02-10T10:53:34;95330.25;;;4.57;43.83
10518;BME280;5307;42.548;22.968;2023-02-10T10:56:05;95334.25;;;4.33;42.69
10518;BME280;5307;42.548;22.968;2023-02-10T10:58:36;95333.44;;;4.29;43.55
10518;BME280;5307;42.548;22.968;2023-02-10T11:01:04;95333.19;;;4.07;42.52
10518;BME280;5307;42.548;22.968;2023-02-10T11:03:31;95324.44;;;4.99;41.57
10518;BME280;5307;42.548;22.968;2023-02-10T11:06:01;95316.88;;;4.34;42.79
10518;BME280;5307;42.548;22.968;2023-02-10T11:08:34;95312.03;;;4.98;43.08
10518;BME280;5307;42.548;22.968;2023-02-10T11:11:04;95295.63;;;5.31;41.71
10518;BME280;5307;42.548;22.968;2023-02-10T11:13:37;95301.88;;;4.81;41.48
10518;BME280;5307;42.548;22.968;2023-02-10T11:16:06;95302.06;;;4.21;41.81
10518;BME280;5307;42.548;22.968;2023-02-10T11:18:36;95314.81;;;3.56;41.82
10518;BME280;5307;42.548;22.968;2023-02-10T11:21:04;95309.94;;;5.28;42.12
10518;BME280;5307;42.548;22.968;2023-02-10T11:23:36;95303.41;;;4.04;41.89
10518;BME280;5307;42.548;22.968;2023-02-10T11:26:05;95306.88;;;4.38;42.64
10518;BME280;5307;42.548;22.968;2023-02-10T11:28:34;95297.34;;;4.99;44.61
10518;BME280;5307;42.548;22.968;2023-02-10T11:31:04;95287.97;;;4.86;43.24
10518;BME280;5307;42.548;22.968;2023-02-10T11:33:34;95282.34;;;3.83;46.65
10518;BME280;5307;42.548;22.968;2023-02-10T11:36:06;95291.06;;;4.88;44.72
10518;BME280;5307;42.548;22.968;2023-02-10T11:38:35;95267.88;;;4.87;43.96
10518;BME280;5307;42.548;22.968;2023-02-10T11:41:04;95284.50;;;4.85;45.30
10518;BME280;5307;42.548;22.968;2023-02-10T11:43:37;95277.59;;;4.47;45.06
10518;BME280;5307;42.548;22.968;2023-02-10T11:46:06;95285.16;;;4.31;44.56
10518;BME280;5307;42.548;22.968;2023-02-10T11:48:35;95282.44;;;4.71;44.82
10518;BME280;5307;42.548;22.968;2023-02-10T11:51:05;95277.34;;;5.14;44.33
10518;BME280;5307;42.548;22.968;2023-02-10T11:53:36;95280.41;;;4.58;43.38
10518;BME280;5307;42.548;22.968;2023-02-10T12:31:41;95231.88;;;4.35;42.98
10518;BME280;5307;42.548;22.968;2023-02-10T12:37:32;95229.41;;;4.15;42.65
10518;BME280;5307;42.548;22.968;2023-02-10T12:40:24;95222.91;;;4.24;40.25
10518;BME280;5307;42.548;22.968;2023-02-10T12:43:13;95227.59;;;3.52;40.05
10518;BME280;5307;42.548;22.968;2023-02-10T12:45:51;95226.66;;;3.75;42.31
10518;BME280;5307;42.548;22.968;2023-02-10T12:48:27;95226.66;;;3.75;41.44
10518;BME280;5307;42.548;22.968;2023-02-10T12:51:14;95222.66;;;3.62;41.24
10518;BME280;5307;42.548;22.968;2023-02-10T12:53:44;95222.97;;;3.53;40.26
10518;BME280;5307;42.548;22.968;2023-02-10T12:56:19;95217.28;;;3.65;40.34
10518;BME280;5307;42.548;22.968;2023-02-10T12:58:49;95205.31;;;3.29;41.14
10518;BME280;5307;42.548;22.968;2023-02-10T13:01:21;95211.00;;;3.91;41.21
10518;BME280;5307;42.548;22.968;2023-02-10T13:03:54;95221.25;;;3.75;41.61
10518;BME280;5307;42.548;22.968;2023-02-10T13:06:27;95229.38;;;3.41;40.56
10518;BME280;5307;42.548;22.968;2023-02-10T13:09:01;95213.34;;;3.55;41.55
10518;BME280;5307;42.548;22.968;2023-02-10T13:11:35;95227.84;;;3.77;42.60
10518;BME280;5307;42.548;22.968;2023-02-10T13:14:11;95222.19;;;3.52;42.40
10518;BME280;5307;42.548;22.968;2023-02-10T13:16:50;95228.72;;;3.85;40.37
10518;BME280;5307;42.548;22.968;2023-02-10T13:19:27;95222.06;;;3.79;40.36
10518;BME280;5307;42.548;22.968;2023-02-10T13:22:01;95218.41;;;3.61;38.26
10518;BME280;5307;42.548;22.968;2023-02-10T13:24:39;95213.88;;;3.68;39.78
10518;BME280;5307;42.548;22.968;2023-02-10T13:27:19;95215.25;;;3.92;39.58
10518;BME280;5307;42.548;22.968;2023-02-10T13:29:57;95215.84;;;3.75;40.59
10518;BME280;5307;42.548;22.968;2023-02-10T13:32:45;95212.63;;;3.62;39.90
10518;BME280;5307;42.548;22.968;2023-02-10T13:35:20;95206.38;;;3.54;42.31
10518;BME280;5307;42.548;22.968;2023-02-10T13:37:49;95214.91;;;3.26;43.17
10518;BME280;5307;42.548;22.968;2023-02-10T13:40:20;95200.41;;;3.38;43.79
10518;BME280;5307;42.548;22.968;2023-02-10T13:42:50;95207.34;;;3.73;44.48
10518;BME280;5307;42.548;22.968;2023-02-10T13:45:19;95203.34;;;3.26;42.50
10518;BME280;5307;42.548;22.968;2023-02-10T13:47:53;95209.34;;;3.46;43.74
10518;BME280;5307;42.548;22.968;2023-02-10T13:50:26;95207.19;;;3.58;44.60
10518;BME280;5307;42.548;22.968;2023-02-10T13:52:56;95208.16;;;3.43;44.31
10518;BME280;5307;42.548;22.968;2023-02-10T13:55:40;95224.41;;;3.17;44.94
10518;BME280;5307;42.548;22.968;2023-02-10T13:58:31;95218.97;;;3.13;43.64
10518;BME280;5307;42.548;22.968;2023-02-10T14:00:58;95213.59;;;3.13;46.11
10518;BME280;5307;42.548;22.968;2023-02-10T14:03:32;95224.81;;;2.89;45.41
10518;BME280;5307;42.548;22.968;2023-02-10T14:06:02;95218.38;;;3.27;46.39